This is the latest recevied weather packets stored in our database for station/object WA1OUI. If no packets are shown the sender has not sent any weather packets the latest 10 day(s).
| Time | Temp. | Humidity | Pressure | Rain* | Wind** | Luminosity | Snow |
|---|---|---|---|---|---|---|---|
| 1777870606 | 2.78° C | 83% | 1009.8 hPa | 0 mm | - | 0 W/m² | - |
| 1777870306 | 2.78° C | 83% | 1009.9 hPa | 0 mm | - | 0 W/m² | - |
| 1777870004 | 2.78° C | 82% | 1009.9 hPa | 0 mm | - | 0 W/m² | - |
| 1777869700 | 2.78° C | 82% | 1010 hPa | 0 mm | - | 0 W/m² | - |
| 1777869398 | 2.78° C | 82% | 1010.1 hPa | 0 mm | - | 0 W/m² | - |
| 1777869095 | 2.78° C | 81% | 1009.9 hPa | 0 mm | - | 0 W/m² | - |
| 1777868792 | 2.78° C | 81% | 1010 hPa | 0 mm | - | 0 W/m² | - |
| 1777868489 | 2.78° C | 81% | 1010 hPa | 0 mm | - | 0 W/m² | - |
| 1777868184 | 2.78° C | 81% | 1010 hPa | 0 mm | - | 0 W/m² | - |
| 1777867881 | 2.78° C | 80% | 1009.8 hPa | 0 mm | - | 0 W/m² | - |
| 1777867578 | 3.33° C | 80% | 1009.8 hPa | 0 mm | - | 0 W/m² | - |
| 1777867275 | 3.33° C | 79% | 1009.9 hPa | 0 mm | - | 0 W/m² | - |
| 1777866972 | 3.33° C | 79% | 1009.9 hPa | 0 mm | - | 0 W/m² | - |
| 1777866668 | 3.33° C | 79% | 1009.9 hPa | 0 mm | - | 0 W/m² | - |
| 1777866366 | 3.33° C | 77% | 1009.9 hPa | 0 mm | - | 0 W/m² | - |
| 1777866063 | 3.33° C | 77% | 1009.6 hPa | 0 mm | - | 0 W/m² | - |
| 1777865761 | 3.89° C | 76% | 1009.8 hPa | 0 mm | - | 0 W/m² | - |
| 1777864851 | 3.89° C | 75% | 1009.6 hPa | 0 mm | - | 0 W/m² | - |
| 1777864548 | 3.89° C | 74% | 1009.6 hPa | 0 mm | - | 0 W/m² | - |
| 1777863638 | 4.44° C | 72% | 1009.5 hPa | 0 mm | - | 0 W/m² | - |
| 1777846064 | 11.67° C | 34% | 1007.3 hPa | 0 mm | - | 26 W/m² | - |
| 1777845453 | 11.67° C | 33% | 1007.3 hPa | 0 mm | - | 28 W/m² | - |
| 1777845150 | 12.22° C | 37% | 1007.4 hPa | 0 mm | - | 31 W/m² | - |
| 1777844848 | 12.22° C | 32% | 1007.5 hPa | 0 mm | - | 30 W/m² | - |
| 1777844545 | 12.22° C | 33% | 1007.4 hPa | 0 mm | - | 29 W/m² | - |
* Rain latest hour (hover to see other rain measurements)
** Current wind speed in m/s (hover to see current wind gust speed)